Abbotsford Airport
CYXX : now visible

Airfield :











YOU CAN JOIN US ON...

 
LOGIN :

Register | Disclaimer

   EN    FR    IT 

 









Legend :    VFR   Marginal VFR   IFR   Intensive IFR   Very Intensive IFR
Visi :
Ceiling :
>= 8 km
>= 3000ft
5 to 8 km
1000 to 3000 ft
1500m to 5 km
500 to 1000 ft
800 to 1500m
200 to 500 ft
< 800m
< 200 ft
Symbols :   Thunderstorms  Fog  Heavy snow  Heavy precipitations  Wind > 20 kt






- Airport Elevation : 195 ft
- IATA code : YXX


CYXX - Abbotsford

CURRENT METAR :
  • 080800Z 00000KT 1 3/4SM -DZ BR SCT002 SCT006 BKN013 OVC020 06/06 A2987 RMK SF3SF1ST2SC2 SLP117

EXPIRED METARs :
  • 080726Z 00000KT 2 1/2SM -DZ BR FEW003 SCT015 OVC020 06/06 A2986 RMK SF3SF1ST4 SLP114
  • 080700Z VRB02KT 4SM BR FEW004 FEW015 BKN020 OVC030 06/06 A2986 RMK SF1SF1SC5SC1 VIS E 8 SLP113
  • 080642Z 08002KT 8SM VCFG FEW004 SCT015 BKN021 OVC030 06/06 A2985 RMK SF1SF2SC4SC1 VIS SW-W 1 SLP111
  • 080615Z 10004KT 2 1/2SM BR SCT004 BKN018 OVC022 06/06 A2984 RMK SF3SC2SC3 SLP109
  • 080600Z 10004KT 4SM BR FEW003 BKN018 OVC032 06/06 A2984 RMK ST1SC6SC1 SLP108
  • 080542Z 09003KT 4SM BR FEW003 BKN020 OVC032 06/06 A2984 RMK SF1SC6SC1 VIS LWR W SLP106

TAF AMD TAF CYXX
Valid from the 08 at 06:00 until the 09 at 06:00 UTC


080654Z 0806/0906 VRB03KT P6SM SCT004 BKN025
TEMPO 0806/0817 3/4SM -DZ BR BKN002 OVC015
FM081700 05006KT P6SM SCT015 SCT030
TEMPO 0817/0904 BKN020
FM090400 VRB03KT P6SM SCT020
TEMPO 0904/0906 2SM BR BKN020 RMK NXT FCST BY 081200Z



MET'MAP, your aeronautical weather chart ! - Copyright ORBIFLY December 2007 - Disclaimer

ORBIFLY MET'MAP TEAM :

Programming & Development : Alexandra Zaïnal
Concept & original design : Baudouin d'Aumeries
Assistance for programming : Marc-Olivier Méhu
Technical & hardware support : Manuel Goepfert

Contact : metmap@orbifly.com




SOURCES & CREDITS :

   NOAA       Earth
Advisory